Time;durP1;ratioP1;P1;durP2;ratioP2;P2;SDS_P1;SDS_P2;PMS_P1;PMS_P2;Temp;Humidity;BMP_temperature;BMP_pressure;BME280_temperature;BME280_humidity;BME280_pressure;Samples;Min_cycle;Max_cycle;Signal;HPM_P1;HPM_P2
2022/05/27 00:00:05;;;;;;;21.33;12.90;;;;;;;14.68;75.52;101888.38;4993274;28;20504;-51
2022/05/27 00:02:31;;;;;;;19.42;12.02;;;;;;;14.66;75.43;101892.28;4992426;28;20030;-54
2022/05/27 00:04:56;;;;;;;19.48;11.60;;;;;;;14.69;75.48;101878.88;4993096;28;20026;-53
2022/05/27 00:07:21;;;;;;;19.45;11.75;;;;;;;14.65;76.03;101876.66;4975483;28;20473;-52
2022/05/27 00:09:47;;;;;;;21.25;12.32;;;;;;;14.64;76.35;101882.56;4993021;28;20027;-50
2022/05/27 00:12:12;;;;;;;20.15;11.63;;;;;;;14.59;76.72;101885.44;4992555;28;20030;-54
2022/05/27 00:14:37;;;;;;;20.67;12.13;;;;;;;14.56;76.41;101878.53;4992716;28;20034;-54
2022/05/27 00:17:03;;;;;;;19.35;12.52;;;;;;;14.56;76.69;101877.69;4992361;28;20034;-53
2022/05/27 00:19:29;;;;;;;18.67;11.70;;;;;;;14.57;76.61;101879.34;4992967;28;20101;-53
2022/05/27 00:21:54;;;;;;;21.15;12.45;;;;;;;14.55;76.70;101873.28;4992233;28;20026;-53
2022/05/27 00:24:19;;;;;;;20.48;12.32;;;;;;;14.49;76.55;101866.97;4993939;28;20485;-53
2022/05/27 00:26:45;;;;;;;20.65;11.55;;;;;;;14.54;76.53;101871.63;4996340;28;20611;-53
2022/05/27 00:29:10;;;;;;;19.75;12.15;;;;;;;14.53;76.60;101873.56;4996522;28;20072;-49
2022/05/27 00:31:35;;;;;;;17.60;11.77;;;;;;;14.55;76.23;101870.47;4996291;28;20033;-50
2022/05/27 00:34:00;;;;;;;18.48;11.20;;;;;;;14.49;76.85;101878.91;4996484;28;20026;-53
2022/05/27 00:36:26;;;;;;;19.88;11.73;;;;;;;14.48;77.13;101868.09;4996295;28;20038;-52
2022/05/27 00:38:51;;;;;;;19.77;11.43;;;;;;;14.49;76.98;101867.78;4996206;28;20033;-54
2022/05/27 00:41:17;;;;;;;21.33;11.75;;;;;;;14.51;77.13;101870.25;4996128;28;20033;-55
2022/05/27 00:43:43;;;;;;;20.25;12.45;;;;;;;14.51;76.97;101867.47;4996254;28;20023;-54
2022/05/27 00:46:20;;;;;;;20.35;12.40;;;;;;;14.47;77.15;101861.69;4996164;28;20030;-53
2022/05/27 00:48:49;;;;;;;20.65;12.25;;;;;;;14.50;77.50;101861.09;4994617;28;20106;-54
2022/05/27 00:51:24;;;;;;;20.20;12.32;;;;;;;14.51;77.49;101859.94;4996002;28;20035;-55
2022/05/27 00:53:58;;;;;;;21.35;12.40;;;;;;;14.45;77.99;101860.34;4996168;28;20023;-55
2022/05/27 00:56:29;;;;;;;20.80;12.40;;;;;;;14.47;78.14;101858.09;4978278;28;20038;-55
2022/05/27 00:58:59;;;;;;;22.45;12.57;;;;;;;14.46;78.52;101854.47;4995886;28;20034;-55
2022/05/27 01:01:26;;;;;;;20.13;12.07;;;;;;;14.41;79.64;101857.38;4978368;28;20496;-54
2022/05/27 01:03:54;;;;;;;20.73;12.60;;;;;;;14.45;79.92;101860.34;4995573;28;20026;-52
2022/05/27 01:06:19;;;;;;;20.33;12.70;;;;;;;14.38;80.85;101857.97;4994614;28;20030;-54
2022/05/27 01:08:45;;;;;;;21.15;12.60;;;;;;;14.35;80.90;101859.41;4995621;28;20085;-53
2022/05/27 01:11:16;;;;;;;21.58;11.90;;;;;;;14.31;81.88;101855.59;4995677;28;20026;-54
2022/05/27 01:14:14;;;;;;;20.92;12.63;;;;;;;14.25;83.04;101853.22;4995184;28;20114;-53
2022/05/27 01:16:56;;;;;;;22.85;13.15;;;;;;;14.19;83.16;101850.53;4994946;28;20034;-54
2022/05/27 01:23:19;;;;;;;22.23;12.75;;;;;;;14.10;83.90;101859.88;4995771;28;20041;-56
2022/05/27 01:25:54;;;;;;;21.52;13.80;;;;;;;14.06;85.16;101859.69;4995415;28;20381;-55
2022/05/27 01:29:10;;;;;;;22.67;13.63;;;;;;;13.99;84.58;101854.50;4995639;28;20034;-55
2022/05/27 01:31:35;;;;;;;23.33;13.88;;;;;;;13.91;86.74;101846.03;4970290;28;20066;-54
2022/05/27 01:34:27;;;;;;;22.70;13.97;;;;;;;13.82;87.04;101843.94;4995279;28;20181;-54
2022/05/27 01:37:05;;;;;;;22.77;14.35;;;;;;;13.82;87.53;101843.94;4994712;28;20423;-54
2022/05/27 01:39:39;;;;;;;24.15;13.82;;;;;;;13.81;88.54;101847.84;4995186;28;20022;-55
2022/05/27 01:42:23;;;;;;;23.05;14.40;;;;;;;13.78;89.42;101850.41;4995204;28;20037;-55
2022/05/27 01:45:03;;;;;;;22.13;14.40;;;;;;;13.75;89.51;101851.00;4995661;28;20026;-55
2022/05/27 01:48:00;;;;;;;25.48;13.98;;;;;;;13.63;90.22;101837.56;4994581;28;20164;-55
2022/05/27 01:50:47;;;;;;;23.35;14.70;;;;;;;13.64;90.72;101855.91;4994580;28;20474;-55
2022/05/27 01:53:31;;;;;;;23.30;13.82;;;;;;;13.56;91.72;101835.16;4993246;28;20034;-55
2022/05/27 01:56:26;;;;;;;22.13;14.27;;;;;;;13.61;90.72;101851.78;4994761;28;20034;-56
2022/05/27 01:59:05;;;;;;;23.80;14.55;;;;;;;13.55;92.57;101844.66;4993423;28;20442;-58
2022/05/27 02:01:36;;;;;;;23.58;15.20;;;;;;;13.46;92.54;101844.50;4993253;28;20037;-56
2022/05/27 02:04:13;;;;;;;27.27;15.38;;;;;;;13.45;93.33;101839.25;4977415;28;20030;-56
2022/05/27 02:06:47;;;;;;;26.00;15.52;;;;;;;13.49;93.75;101851.41;4994665;28;20041;-56
2022/05/27 02:09:19;;;;;;;24.05;15.15;;;;;;;13.40;94.48;101896.56;4994572;28;20062;-56
2022/05/27 02:11:49;;;;;;;25.58;16.58;;;;;;;13.24;96.21;101887.59;4994204;28;20050;-55
2022/05/27 02:14:22;;;;;;;20.77;11.95;;;;;;;13.20;93.64;101891.25;4993944;28;20113;-55
2022/05/27 02:16:58;;;;;;;18.87;11.50;;;;;;;13.02;93.18;101888.16;4994109;28;20034;-55
2022/05/27 02:19:33;;;;;;;17.30;10.82;;;;;;;12.87;93.78;101894.72;4992501;28;20042;-55
2022/05/27 02:22:05;;;;;;;17.20;11.10;;;;;;;12.77;95.79;101897.63;4994449;28;20026;-57
2022/05/27 02:24:38;;;;;;;19.20;11.48;;;;;;;12.67;96.40;101887.47;4994421;28;20037;-57
2022/05/27 02:27:13;;;;;;;17.90;11.53;;;;;;;12.42;96.59;101881.06;5071720;22;20099;-50
2022/05/27 02:29:44;;;;;;;18.75;11.68;;;;;;;12.26;97.54;101866.53;5073378;28;20259;-52
2022/05/27 02:32:15;;;;;;;18.65;12.35;;;;;;;12.16;98.92;101883.28;5054817;28;20086;-51
2022/05/27 02:35:07;;;;;;;18.13;12.10;;;;;;;12.01;99.72;101870.38;5072852;28;20075;-53
2022/05/27 02:37:47;;;;;;;19.15;11.88;;;;;;;11.94;100.00;101889.25;5073121;28;20024;-53
2022/05/27 02:40:23;;;;;;;16.52;11.25;;;;;;;11.85;100.00;101848.28;5073035;28;20071;-53
2022/05/27 02:43:14;;;;;;;19.13;11.90;;;;;;;12.07;100.00;101871.16;5072985;28;20047;-53
2022/05/27 02:45:57;;;;;;;17.60;11.32;;;;;;;12.09;100.00;101846.75;5073175;28;20123;-53
2022/05/27 02:48:39;;;;;;;17.95;11.48;;;;;;;12.27;99.43;101859.03;5073045;28;20120;-52
2022/05/27 02:51:29;;;;;;;18.75;11.73;;;;;;;12.35;99.64;101860.34;5072393;28;20032;-49
2022/05/27 02:54:02;;;;;;;19.88;12.07;;;;;;;12.43;99.84;101862.47;5072808;28;20029;-52
2022/05/27 02:56:33;;;;;;;18.10;11.80;;;;;;;12.47;99.04;101867.16;5072774;28;20032;-52
2022/05/27 02:58:58;;;;;;;20.05;12.43;;;;;;;12.48;98.82;101863.25;5072323;28;20020;-51
2022/05/27 03:01:23;;;;;;;18.95;11.75;;;;;;;12.55;99.08;101868.47;5072494;28;20118;-50
2022/05/27 03:03:49;;;;;;;17.75;11.38;;;;;;;12.59;97.45;101869.50;5072264;28;20081;-49
2022/05/27 03:06:39;;;;;;;18.13;11.27;;;;;;;12.60;98.86;101859.25;5072249;28;20025;-52
2022/05/27 03:09:10;;;;;;;20.52;11.55;;;;;;;12.62;98.01;101856.97;5072634;28;20025;-50
2022/05/27 03:12:14;;;;;;;19.00;11.00;;;;;;;12.59;98.23;101854.81;5072325;28;20090;-52
2022/05/27 03:14:39;;;;;;;19.80;11.85;;;;;;;12.62;96.93;101859.75;5037982;28;20490;-50
2022/05/27 03:17:23;;;;;;;18.27;11.30;;;;;;;12.60;96.82;101853.69;5072087;28;20025;-52
2022/05/27 03:19:58;;;;;;;;;;;;;;;12.67;94.73;101862.50;5072589;28;20391;-52
2022/05/27 03:22:39;;;;;;;18.38;10.80;;;;;;;12.60;96.54;101862.84;5072430;28;19912;-52
2022/05/27 03:25:27;;;;;;;18.63;11.18;;;;;;;12.64;96.73;101857.50;5072537;28;20447;-50
2022/05/27 03:28:15;;;;;;;19.30;12.10;;;;;;;12.64;97.78;101860.28;5032541;28;20045;-53
2022/05/27 03:31:10;;;;;;;19.88;11.68;;;;;;;12.62;97.50;101843.94;5032467;28;20048;-53
2022/05/27 03:33:58;;;;;;;19.75;11.93;;;;;;;12.62;98.23;101843.94;5031775;28;20080;-52
2022/05/27 03:36:50;;;;;;;18.98;11.98;;;;;;;12.61;98.66;101824.81;5032555;28;20079;-52
2022/05/27 03:39:36;;;;;;;18.98;12.10;;;;;;;12.65;98.33;101831.41;5032244;28;20041;-52
2022/05/27 03:42:06;;;;;;;19.63;12.38;;;;;;;12.57;98.57;101818.19;5032025;28;20029;-50
2022/05/27 03:44:32;;;;;;;20.55;12.23;;;;;;;12.71;98.89;101834.97;5032489;28;20025;-52
2022/05/27 03:46:58;;;;;;;20.02;12.40;;;;;;;12.74;98.66;101837.16;5030282;28;20028;-51
2022/05/27 03:49:24;;;;;;;18.65;12.20;;;;;;;12.72;98.95;101834.66;5031588;28;20449;-51
2022/05/27 03:52:06;;;;;;;18.77;11.88;;;;;;;12.76;99.66;101837.66;5031341;28;20087;-51
2022/05/27 03:54:32;;;;;;;19.40;12.30;;;;;;;12.78;99.08;101841.81;5031686;28;20044;-53
2022/05/27 03:56:58;;;;;;;20.02;12.32;;;;;;;12.80;99.02;101836.75;5032109;28;20489;-51
2022/05/27 03:59:24;;;;;;;18.38;11.88;;;;;;;12.79;98.63;101837.06;5033264;28;20101;-50
2022/05/27 04:01:52;;;;;;;18.63;12.07;;;;;;;12.79;98.67;101829.59;5035693;28;20095;-52
2022/05/27 04:04:20;;;;;;;19.23;11.88;;;;;;;12.78;98.93;101835.41;5035437;28;20049;-49
2022/05/27 04:06:47;;;;;;;18.48;11.45;;;;;;;12.84;98.65;101844.50;5035528;28;20052;-51
2022/05/27 04:09:13;;;;;;;20.30;11.75;;;;;;;12.87;98.54;101847.50;5035605;28;20064;-50
2022/05/27 04:11:39;;;;;;;18.52;11.30;;;;;;;12.91;98.02;101845.81;5035609;28;20079;-52
2022/05/27 04:14:04;;;;;;;18.63;12.13;;;;;;;12.95;98.11;101854.38;5035217;28;20404;-51
2022/05/27 04:16:30;;;;;;;21.65;12.25;;;;;;;12.99;97.64;101854.59;5035601;28;20029;-50
2022/05/27 04:18:55;;;;;;;18.83;11.40;;;;;;;13.00;97.76;101856.25;5035089;28;20057;-52
2022/05/27 04:21:20;;;;;;;19.92;11.85;;;;;;;13.01;98.19;101847.63;5035488;28;20361;-52
2022/05/27 04:23:46;;;;;;;19.23;11.35;;;;;;;13.05;98.18;101853.41;5035274;28;20049;-51
2022/05/27 04:26:11;;;;;;;18.90;11.98;;;;;;;13.03;97.96;101848.16;5049091;28;20455;-53
2022/05/27 04:28:38;;;;;;;19.50;12.25;;;;;;;13.08;98.56;101855.59;5075887;28;20040;-51
2022/05/27 04:31:03;;;;;;;18.45;11.40;;;;;;;13.09;98.23;101858.06;5075869;28;20021;-53
2022/05/27 04:33:29;;;;;;;19.70;12.20;;;;;;;13.09;98.41;101855.28;5075208;28;20024;-50
2022/05/27 04:35:55;;;;;;;18.83;12.05;;;;;;;13.17;98.76;101862.13;5075225;28;20321;-52
2022/05/27 04:38:22;;;;;;;19.27;11.77;;;;;;;13.18;98.48;101851.81;5075357;28;20109;-49
2022/05/27 04:40:47;;;;;;;19.83;11.85;;;;;;;13.22;98.58;101861.22;5075726;28;20075;-51
2022/05/27 04:43:13;;;;;;;21.60;12.20;;;;;;;13.29;98.70;101863.66;5075470;28;20467;-50
2022/05/27 04:45:38;;;;;;;19.60;12.35;;;;;;;13.34;98.96;101858.84;5075453;28;20371;-49
2022/05/27 04:48:04;;;;;;;21.95;11.85;;;;;;;13.40;98.57;101857.66;5074984;28;20104;-48
2022/05/27 04:50:29;;;;;;;20.33;12.32;;;;;;;13.49;99.08;101857.81;5074256;28;20036;-49
2022/05/27 04:52:55;;;;;;;19.75;12.20;;;;;;;13.57;98.62;101864.63;5074472;28;20110;-49
2022/05/27 04:55:22;;;;;;;21.30;12.93;;;;;;;13.62;99.04;101866.50;5074357;28;20032;-49
2022/05/27 04:57:54;;;;;;;20.27;11.93;;;;;;;13.60;98.79;101858.47;5074579;28;20504;-50
2022/05/27 05:00:26;;;;;;;20.65;12.27;;;;;;;13.72;98.86;101860.78;5074288;28;20021;-50
2022/05/27 05:02:52;;;;;;;22.20;13.23;;;;;;;13.82;98.36;101871.75;5074182;28;20038;-50
2022/05/27 05:05:21;;;;;;;21.02;13.07;;;;;;;13.89;97.97;101869.41;5074443;28;20016;-52
2022/05/27 05:07:50;;;;;;;21.83;12.75;;;;;;;13.95;97.92;101860.97;5074392;28;20043;-52
2022/05/27 05:10:18;;;;;;;22.60;13.38;;;;;;;13.95;98.41;101852.63;5055404;28;20021;-53
2022/05/27 05:12:44;;;;;;;23.30;13.00;;;;;;;14.14;97.77;101872.03;5073797;28;20482;-52
2022/05/27 05:15:10;;;;;;;22.33;12.95;;;;;;;14.23;98.42;101869.41;5074408;28;20108;-51
2022/05/27 05:17:36;;;;;;;24.10;13.57;;;;;;;14.32;98.42;101873.13;5074445;28;20422;-50
2022/05/27 05:20:01;;;;;;;24.75;12.48;;;;;;;14.34;96.08;101876.44;5074258;28;20021;-51
2022/05/27 05:22:26;;;;;;;26.63;13.32;;;;;;;14.28;94.43;101870.13;5074489;28;20024;-51
2022/05/27 05:24:54;;;;;;;23.67;12.80;;;;;;;14.22;95.22;101884.44;5074421;28;20028;-52
2022/05/27 05:27:25;;;;;;;22.20;13.65;;;;;;;14.16;96.19;101883.69;5074019;28;20055;-54
2022/05/27 05:29:52;;;;;;;22.83;12.90;;;;;;;14.22;95.92;101885.25;5074157;28;20082;-54
2022/05/27 05:32:17;;;;;;;23.42;12.48;;;;;;;14.28;95.14;101883.22;5068029;28;20037;-53
2022/05/27 05:34:43;;;;;;;26.38;13.00;;;;;;;14.30;95.04;101886.53;5062008;28;20057;-53
2022/05/27 05:37:08;;;;;;;25.73;12.75;;;;;;;14.25;95.08;101894.97;5062045;28;20027;-53
2022/05/27 05:39:36;;;;;;;24.20;13.20;;;;;;;14.26;95.45;101894.66;5053898;28;20111;-54
2022/05/27 05:42:03;;;;;;;23.45;13.00;;;;;;;14.23;95.85;101894.44;5053993;28;20028;-52
2022/05/27 05:44:30;;;;;;;23.83;12.95;;;;;;;14.23;95.81;101900.00;5053502;28;20021;-53
2022/05/27 05:46:56;;;;;;;24.98;12.95;;;;;;;14.19;94.59;101903.41;5053634;28;20456;-53
2022/05/27 05:49:22;;;;;;;24.92;12.55;;;;;;;14.21;94.10;101903.09;5053867;28;20183;-52
2022/05/27 05:51:48;;;;;;;25.63;12.40;;;;;;;14.31;92.90;101900.13;5053405;28;20024;-52
2022/05/27 05:54:13;;;;;;;27.27;12.48;;;;;;;14.35;93.19;101903.13;5053165;28;20086;-53
2022/05/27 05:56:38;;;;;;;25.48;13.18;;;;;;;14.32;92.81;101906.53;5053787;28;20036;-53
2022/05/27 05:59:04;;;;;;;21.92;11.38;;;;;;;14.39;89.83;101914.50;5035598;28;20025;-53
2022/05/27 06:01:30;;;;;;;20.48;11.35;;;;;;;14.33;90.19;101909.00;5053413;28;20091;-51
2022/05/27 06:03:55;;;;;;;24.17;11.18;;;;;;;14.29;90.07;101912.69;5053148;28;20448;-51
2022/05/27 06:06:21;;;;;;;23.85;11.27;;;;;;;14.25;88.78;101920.03;5053181;28;20035;-53
2022/05/27 06:08:46;;;;;;;21.65;11.70;;;;;;;14.32;90.49;101917.66;5053374;28;20047;-52
2022/05/27 06:11:11;;;;;;;20.17;10.50;;;;;;;14.38;87.95;101926.75;5053224;28;20025;-53
2022/05/27 06:13:37;;;;;;;21.52;10.50;;;;;;;14.44;86.30;101922.72;5052925;28;20033;-53
2022/05/27 06:16:03;;;;;;;20.95;10.90;;;;;;;14.50;84.55;101919.56;5053324;28;20052;-52
2022/05/27 06:18:29;;;;;;;22.30;10.85;;;;;;;14.55;84.46;101909.47;5053299;28;20478;-51
2022/05/27 06:20:54;;;;;;;19.17;10.60;;;;;;;14.58;82.76;101920.81;5053027;28;20025;-53
2022/05/27 06:23:21;;;;;;;19.75;10.27;;;;;;;14.50;83.25;101930.69;5052599;28;20116;-49
2022/05/27 06:25:53;;;;;;;18.85;10.05;;;;;;;14.49;81.62;101931.81;5051912;28;20045;-49
2022/05/27 06:36:30;;;;;;;20.13;9.95;;;;;;;14.56;82.31;101928.63;5053532;28;20489;-51
2022/05/27 06:38:56;;;;;;;19.00;10.00;;;;;;;14.63;80.76;101947.75;5052950;28;20040;-50
2022/05/27 06:41:21;;;;;;;18.88;10.20;;;;;;;14.61;79.61;101938.84;5053201;28;20037;-52
2022/05/27 06:43:46;;;;;;;21.63;10.70;;;;;;;14.61;77.97;101938.84;5052849;28;20138;-51
2022/05/27 06:46:13;;;;;;;18.65;9.88;;;;;;;14.58;74.70;101934.72;5053311;28;20029;-52
2022/05/27 06:48:38;;;;;;;18.42;9.52;;;;;;;14.63;76.96;101931.84;5053012;28;20167;-49
2022/05/27 06:51:06;;;;;;;18.75;9.65;;;;;;;14.53;75.30;101920.88;5053529;28;20029;-53
2022/05/27 06:53:31;;;;;;;22.60;10.60;;;;;;;14.67;77.07;101934.88;5053409;28;20052;-50
2022/05/27 06:55:56;;;;;;;18.98;9.60;;;;;;;14.71;76.07;101932.28;5052453;28;20024;-53
2022/05/27 06:58:21;;;;;;;21.33;10.30;;;;;;;14.75;77.82;101936.13;5052631;28;20442;-52
2022/05/27 07:00:48;;;;;;;21.98;10.93;;;;;;;14.85;76.15;101944.28;5052321;28;20530;-50
2022/05/27 07:03:13;;;;;;;20.90;10.20;;;;;;;14.90;74.66;101940.56;5052216;28;20134;-53
2022/05/27 07:05:38;;;;;;;19.63;10.10;;;;;;;14.97;71.64;101943.75;5052319;28;20083;-50
2022/05/27 07:08:05;;;;;;;20.48;10.38;;;;;;;14.87;71.34;101949.53;5052511;28;20052;-53
2022/05/27 07:10:31;;;;;;;20.35;10.55;;;;;;;14.82;70.63;101951.31;5052171;28;20425;-57
2022/05/27 07:12:59;;;;;;;18.73;9.52;;;;;;;14.77;70.81;101945.81;5052237;28;20071;-53
2022/05/27 07:15:27;;;;;;;22.40;10.43;;;;;;;14.79;71.35;101946.34;5052331;28;20024;-53
2022/05/27 07:17:52;;;;;;;20.33;10.02;;;;;;;14.89;71.05;101939.72;5052276;28;20051;-53
2022/05/27 07:20:18;;;;;;;18.73;10.15;;;;;;;15.12;72.13;101946.22;5052467;28;20437;-53
2022/05/27 07:22:43;;;;;;;19.08;9.80;;;;;;;15.37;71.27;101949.63;5053007;28;20049;-51
2022/05/27 07:25:11;;;;;;;20.13;10.50;;;;;;;15.48;69.19;101953.00;5052210;28;20088;-53
2022/05/27 07:27:37;;;;;;;17.45;10.02;;;;;;;15.40;65.88;101965.72;5052720;28;20135;-53
2022/05/27 07:30:02;;;;;;;18.90;10.20;;;;;;;15.28;66.33;101957.88;5052206;28;20501;-52
2022/05/27 07:32:32;;;;;;;19.85;10.13;;;;;;;15.07;67.02;101949.13;5051785;28;20032;-50
2022/05/27 07:34:57;;;;;;;17.83;10.07;;;;;;;15.18;67.01;101960.06;5051372;28;20029;-49
2022/05/27 07:37:23;;;;;;;19.52;10.65;;;;;;;15.23;67.74;101959.94;5051634;28;20028;-53
2022/05/27 07:39:48;;;;;;;22.13;10.10;;;;;;;15.36;68.91;101956.34;5051519;28;20034;-52
2022/05/27 07:42:13;;;;;;;21.00;9.90;;;;;;;15.50;68.55;101955.47;5051635;28;20140;-53
2022/05/27 07:44:39;;;;;;;17.70;9.80;;;;;;;15.53;66.65;101969.66;5051852;28;20494;-49
2022/05/27 07:47:05;;;;;;;21.08;9.65;;;;;;;15.44;66.20;101963.97;5051667;28;20025;-51
2022/05/27 07:49:30;;;;;;;16.60;9.05;;;;;;;15.57;66.66;101965.06;5051999;28;20111;-52
2022/05/27 07:51:56;;;;;;;19.38;9.60;;;;;;;15.67;66.80;101968.78;5051994;28;20512;-53
2022/05/27 07:54:21;;;;;;;19.23;10.13;;;;;;;15.71;66.79;101972.59;5051691;28;20033;-51
2022/05/27 07:56:47;;;;;;;20.98;9.88;;;;;;;15.71;68.30;101965.03;5051798;28;20109;-51
2022/05/27 07:59:12;;;;;;;20.08;9.80;;;;;;;15.69;68.07;101970.09;5051555;28;20095;-52
2022/05/27 08:01:37;;;;;;;19.52;10.40;;;;;;;15.71;67.60;101970.63;5051499;28;20039;-52
2022/05/27 08:04:04;;;;;;;20.70;10.55;;;;;;;15.58;66.95;101977.06;5051013;28;20021;-49
2022/05/27 08:06:30;;;;;;;17.73;9.85;;;;;;;15.42;66.15;101985.75;5051476;28;20056;-51
2022/05/27 08:08:55;;;;;;;19.70;10.35;;;;;;;15.32;65.92;101994.31;5051386;28;20056;-50
2022/05/27 08:11:20;;;;;;;21.60;10.05;;;;;;;15.17;67.35;101994.66;5051458;28;20051;-50
2022/05/27 08:13:45;;;;;;;21.90;10.40;;;;;;;15.06;67.18;101989.28;5051227;28;20356;-52
2022/05/27 08:16:11;;;;;;;19.42;10.35;;;;;;;15.03;67.29;101972.34;5051790;28;20029;-50
2022/05/27 08:18:37;;;;;;;20.17;9.77;;;;;;;15.11;67.16;101986.38;5051663;28;20039;-49
2022/05/27 08:21:03;;;;;;;19.90;9.63;;;;;;;15.32;65.39;101987.94;5052278;28;20083;-52
2022/05/27 08:23:28;;;;;;;21.67;10.10;;;;;;;15.41;64.08;101981.31;5051955;28;20120;-48
2022/05/27 08:25:55;;;;;;;19.00;9.57;;;;;;;15.52;63.22;101995.03;5051653;28;20044;-50
2022/05/27 08:28:24;;;;;;;20.33;9.70;;;;;;;15.58;62.02;101994.63;5052007;28;20025;-51
2022/05/27 08:30:50;;;;;;;19.45;9.23;;;;;;;15.88;62.58;101985.88;5051545;28;20033;-51
2022/05/27 08:33:16;;;;;;;20.15;9.73;;;;;;;16.10;61.24;101985.13;5051649;28;20017;-52
2022/05/27 08:38:32;;;;;;;18.58;9.93;;;;;;;16.56;60.54;101991.50;5051381;28;20048;-53
2022/05/27 08:41:24;;;;;;;18.08;10.07;;;;;;;16.50;60.41;101998.38;5033018;28;20029;-50
2022/05/27 08:44:01;;;;;;;17.95;10.40;;;;;;;16.24;59.04;102003.75;5051224;28;20052;-50
2022/05/27 08:46:41;;;;;;;20.35;9.52;;;;;;;15.83;59.78;102022.25;5053872;28;20028;-52
2022/05/27 08:49:12;;;;;;;20.60;10.52;;;;;;;15.54;61.00;101995.56;5054871;28;20056;-49
2022/05/27 08:51:41;;;;;;;21.67;10.05;;;;;;;15.48;62.20;102005.19;5054933;28;20028;-48
2022/05/27 08:54:15;;;;;;;19.05;9.77;;;;;;;15.57;63.09;101989.38;5054667;28;20032;-50
2022/05/27 08:59:51;;;;;;;22.45;10.00;;;;;;;15.99;61.52;101990.09;5054631;28;20446;-52
2022/05/27 09:02:29;;;;;;;21.95;10.18;;;;;;;16.24;60.20;101992.59;5054658;28;20036;-53
2022/05/27 09:05:21;;;;;;;22.40;10.15;;;;;;;16.28;58.21;102007.59;5054556;28;20109;-53
2022/05/27 09:07:59;;;;;;;20.50;10.30;;;;;;;15.96;58.33;102001.06;5054600;28;20048;-52
2022/05/27 09:10:51;;;;;;;21.15;10.30;;;;;;;15.77;57.14;102018.75;5054891;28;20040;-51
2022/05/27 09:13:22;;;;;;;23.40;10.50;;;;;;;15.50;57.55;102006.50;5054497;28;20037;-55
2022/05/27 09:15:56;;;;;;;22.10;10.00;;;;;;;15.70;58.84;102012.78;5054860;28;20033;-52
2022/05/27 09:18:22;;;;;;;21.98;10.45;;;;;;;15.79;55.97;102015.66;5054327;28;20468;-52
2022/05/27 09:21:13;;;;;;;20.73;9.37;;;;;;;15.98;56.21;102021.13;5054413;28;20039;-51
2022/05/27 09:24:00;;;;;;;21.23;9.73;;;;;;;16.16;56.14;102017.34;5054046;28;20268;-52
2022/05/27 09:26:52;;;;;;;19.58;10.25;;;;;;;16.11;55.37;101999.88;5032451;28;20056;-52
2022/05/27 09:29:32;;;;;;;20.75;9.60;;;;;;;16.14;54.70;102016.00;5052206;28;20499;-50
2022/05/27 09:32:06;;;;;;;19.98;9.85;;;;;;;15.95;55.47;102007.78;5053822;28;20033;-52
2022/05/27 09:34:35;;;;;;;20.08;10.07;;;;;;;15.90;55.10;102008.72;5053459;28;20057;-51
2022/05/27 09:37:04;;;;;;;19.17;9.98;;;;;;;15.82;54.11;102015.03;5053680;28;20471;-51
2022/05/27 09:39:31;;;;;;;18.55;9.90;;;;;;;15.86;53.58;102028.06;5053083;28;20033;-51
2022/05/27 09:42:29;;;;;;;20.48;10.13;;;;;;;16.11;54.28;102023.03;5053421;28;20036;-51
2022/05/27 09:44:56;;;;;;;20.42;10.70;;;;;;;16.16;53.25;102031.31;5053267;28;20035;-53
2022/05/27 09:47:25;;;;;;;18.17;8.85;;;;;;;16.32;52.88;102039.28;5053632;28;20120;-51
2022/05/27 09:50:02;;;;;;;18.55;9.18;;;;;;;16.40;53.30;102027.38;5053615;28;20025;-52
2022/05/27 09:52:31;;;;;;;19.77;10.15;;;;;;;16.58;52.76;102047.88;5053495;28;20424;-49
2022/05/27 09:55:00;;;;;;;20.00;9.93;;;;;;;16.59;53.23;102034.72;5053516;28;20043;-50
2022/05/27 09:57:28;;;;;;;20.83;10.00;;;;;;;16.55;53.97;102028.13;5053264;28;20090;-52
2022/05/27 09:59:59;;;;;;;19.88;9.80;;;;;;;16.43;53.68;102020.34;5053616;28;20446;-50
2022/05/27 10:02:34;;;;;;;20.20;9.77;;;;;;;16.71;53.31;102025.78;5053805;28;20032;-51
2022/05/27 10:04:59;;;;;;;20.50;10.13;;;;;;;16.93;50.54;102042.53;5053644;28;20487;-50
2022/05/27 10:07:35;;;;;;;20.83;10.07;;;;;;;17.04;51.52;102017.09;5053208;28;20032;-52
2022/05/27 10:10:26;;;;;;;17.85;9.65;;;;;;;17.15;49.55;102035.25;5053373;28;20025;-50
2022/05/27 10:12:51;;;;;;;19.27;10.30;;;;;;;17.11;51.11;102026.66;5052929;28;20029;-53
2022/05/27 10:15:33;;;;;;;16.65;9.43;;;;;;;16.78;52.21;102029.75;5052979;28;20041;-49
2022/05/27 10:18:20;;;;;;;20.23;9.70;;;;;;;16.57;50.84;102025.84;5072625;28;20976;-51
2022/05/27 10:21:09;;;;;;;19.40;10.20;;;;;;;16.93;51.38;102036.94;5074620;28;20022;-50
2022/05/27 10:23:38;;;;;;;20.92;9.98;;;;;;;17.30;48.41;102028.38;5072976;28;20040;-50
2022/05/27 10:26:20;;;;;;;20.33;9.40;;;;;;;17.61;48.26;102033.91;5074301;28;20185;-49
2022/05/27 10:29:06;;;;;;;19.33;9.80;;;;;;;17.43;44.50;102049.00;5074144;28;20024;-49
2022/05/27 10:31:32;;;;;;;18.58;9.80;;;;;;;17.55;45.77;102039.97;5072643;28;20059;-51
2022/05/27 10:34:00;;;;;;;21.38;9.80;;;;;;;17.60;46.45;102037.03;5068681;28;20039;-51
2022/05/27 10:36:46;;;;;;;18.13;9.55;;;;;;;17.42;45.71;102044.53;5072548;28;20504;-49
2022/05/27 10:39:20;;;;;;;16.85;9.65;;;;;;;17.30;46.17;102036.78;5073802;28;20451;-52
2022/05/27 10:41:53;;;;;;;21.35;10.07;;;;;;;17.38;47.26;102035.97;5067392;28;20419;-49
2022/05/27 10:44:48;;;;;;;18.50;10.18;;;;;;;17.46;45.75;102043.56;5052008;28;20043;-53
2022/05/27 10:47:43;;;;;;;18.23;9.57;;;;;;;17.05;46.71;102032.72;5070104;28;20028;-48
2022/05/27 10:50:18;;;;;;;19.88;10.00;;;;;;;16.93;47.21;102031.34;5068153;28;20124;-49
2022/05/27 10:53:21;;;;;;;20.30;10.05;;;;;;;16.84;46.81;102033.25;5070321;28;20514;-49
2022/05/27 10:56:14;;;;;;;20.42;10.07;;;;;;;16.92;47.46;102015.69;5068831;28;20433;-49
2022/05/27 11:02:07;;;;;;;19.73;10.00;;;;;;;16.71;48.60;102050.94;5073027;28;20085;-49
2022/05/27 11:05:09;;;;;;;18.60;10.00;;;;;;;16.69;49.20;102045.63;5037398;28;20041;-49
2022/05/27 11:07:57;;;;;;;21.35;10.23;;;;;;;17.10;49.55;102040.94;5063036;28;20309;-50
2022/05/27 11:10:27;;;;;;;21.77;9.70;;;;;;;17.28;43.74;102050.25;5065455;28;20029;-48
2022/05/27 11:16:02;;;;;;;17.95;9.13;;;;;;;17.40;43.70;102042.09;5056940;28;20048;-52
2022/05/27 11:19:00;;;;;;;17.52;9.65;;;;;;;17.57;43.74;102041.28;5050719;28;20033;-52
2022/05/27 11:21:39;;;;;;;17.70;9.82;;;;;;;17.64;44.16;102038.03;5006308;28;20045;-51
2022/05/27 11:24:15;;;;;;;18.15;9.90;;;;;;;17.81;44.35;102042.84;5049971;28;20071;-53
2022/05/27 11:26:59;;;;;;;22.98;9.93;;;;;;;17.54;44.91;102063.50;5048971;28;20053;-49
2022/05/27 11:29:55;;;;;;;21.52;10.55;;;;;;;17.05;45.52;102063.47;5049629;28;20052;-50
2022/05/27 11:32:48;;;;;;;19.23;9.30;;;;;;;17.12;45.70;102039.50;5049635;28;20051;-53
2022/05/27 11:35:37;;;;;;;18.30;9.02;;;;;;;17.04;44.82;102054.28;5033021;28;20062;-49
2022/05/27 11:38:44;;;;;;;19.02;9.40;;;;;;;16.81;43.15;102045.88;5049457;28;20499;-51
2022/05/27 11:41:32;;;;;;;21.42;9.90;;;;;;;17.07;44.52;102052.81;4998526;28;20075;-52
2022/05/27 11:44:03;;;;;;;19.45;9.07;;;;;;;17.23;44.52;102062.41;5049388;28;20069;-51
2022/05/27 11:46:38;;;;;;;21.17;8.90;;;;;;;17.49;43.71;102063.66;5049300;28;20025;-50
2022/05/27 11:49:10;;;;;;;19.88;9.02;;;;;;;17.41;44.20;102046.53;5047848;28;20037;-48
2022/05/27 11:51:43;;;;;;;18.23;9.23;;;;;;;17.62;43.92;102065.50;5049077;28;20352;-48
2022/05/27 11:54:33;;;;;;;19.63;8.60;;;;;;;17.80;43.41;102065.56;5031458;28;20051;-50
2022/05/27 11:57:20;;;;;;;17.98;9.18;;;;;;;17.88;42.56;102065.56;5049065;28;20430;-49
2022/05/27 12:00:01;;;;;;;18.95;8.80;;;;;;;17.80;41.75;102071.16;5049171;28;20120;-49